| time (UTC) | temp C | wind direction | speed KPH | gust KPH | rain 1hr cm | rain 24hr cm | rain mn cm | humidity % | barometer mb |
| 20260505024524 | 13 | 186 | 1.6 | 6.4 | 0.00 | 0.00 | 0.00 | 57 | 1010.7 |
| 20260505023028 | 13 | 179 | 0.0 | 6.4 | 0.00 | 0.00 | 0.00 | 56 | 1010.7 |
| 20260505021526 | 14 | 212 | 1.6 | 6.4 | 0.00 | 0.00 | 0.00 | 54 | 1010.8 |
| 20260505020035 | 14 | 178 | 1.6 | 12.9 | 0.00 | 0.00 | 0.00 | 53 | 1010.7 |
| 20260505014533 | 14 | 202 | 0.0 | 9.7 | 0.00 | 0.00 | 0.00 | 52 | 1010.6 |
| 20260505013007 | 15 | 176 | 0.0 | 4.8 | 0.00 | 0.00 | 0.00 | 51 | 1010.4 |
| 20260505011512 | 15 | 196 | 0.0 | 9.7 | 0.00 | 0.00 | 0.00 | 50 | 1010.1 |
| 20260505010016 | 15 | 192 | 1.6 | 9.7 | 0.00 | 0.00 | 0.00 | 49 | 1009.8 |
| 20260505004529 | 16 | 148 | 3.2 | 8.0 | 0.00 | 0.00 | 0.00 | 48 | 1009.5 |
| 20260505003047 | 16 | 244 | 1.6 | 9.7 | 0.00 | 0.00 | 0.00 | 47 | 1009.1 |
| 20260505001507 | 16 | 192 | 1.6 | 11.3 | 0.00 | 0.00 | 0.00 | 47 | 1008.7 |
| 20260505000031 | 17 | 194 | 3.2 | 8.0 | 0.00 | 0.00 | 0.00 | 45 | 1008.5 |
| 20260504234518 | 17 | 180 | 1.6 | 11.3 | 0.00 | 0.00 | 0.00 | 43 | 1008.1 |
| 20260504233024 | 18 | 178 | 6.4 | 14.5 | 0.00 | 0.00 | 0.00 | 41 | 1007.8 |
| 20260504231527 | 18 | 160 | 3.2 | 17.7 | 0.00 | 0.00 | 0.00 | 40 | 1007.6 |
| 20260504230027 | 19 | 206 | 3.2 | 12.9 | 0.00 | 0.00 | 0.00 | 38 | 1007.2 |
| 20260504224519 | 20 | 205 | 1.6 | 9.7 | 0.00 | 0.00 | 0.00 | 33 | 1006.8 |
| 20260504223020 | 20 | 183 | 4.8 | 11.3 | 0.00 | 0.00 | 0.00 | 31 | 1006.7 |
| 20260504221526 | 21 | 200 | 1.6 | 12.9 | 0.00 | 0.00 | 0.00 | 31 | 1006.8 |
| 20260504220026 | 21 | 190 | 3.2 | 11.3 | 0.00 | 0.00 | 0.00 | 31 | 1006.9 |
| 20260504214517 | 21 | 177 | 6.4 | 14.5 | 0.00 | 0.00 | 0.00 | 29 | 1006.8 |
| 20260504213026 | 21 | 205 | 3.2 | 9.7 | 0.00 | 0.00 | 0.00 | 30 | 1006.9 |
| 20260504211534 | 21 | 200 | 4.8 | 14.5 | 0.00 | 0.00 | 0.00 | 30 | 1006.9 |
| 20260504210028 | 21 | 204 | 3.2 | 11.3 | 0.00 | 0.00 | 0.00 | 31 | 1007.0 |
| 20260504204515 | 21 | 155 | 3.2 | 11.3 | 0.00 | 0.00 | 0.00 | 30 | 1006.9 |
| 20260504203021 | 21 | 180 | 3.2 | 12.9 | 0.00 | 0.00 | 0.00 | 29 | 1007.1 |
| 20260504201520 | 21 | 167 | 1.6 | 12.9 | 0.00 | 0.00 | 0.00 | 29 | 1007.0 |
| 20260504200026 | 21 | 216 | 4.8 | 17.7 | 0.00 | 0.00 | 0.00 | 27 | 1007.1 |
| 20260504194527 | 22 | 167 | 4.8 | 11.3 | 0.00 | 0.00 | 0.00 | 27 | 1007.2 |
| 20260504193027 | 22 | 139 | 4.8 | 11.3 | 0.00 | 0.00 | 0.00 | 26 | 1007.2 |
| 20260504191522 | 22 | 191 | 3.2 | 16.1 | 0.00 | 0.00 | 0.00 | 30 | 1007.1 |
| 20260504190024 | 22 | 217 | 4.8 | 24.1 | 0.00 | 0.00 | 0.00 | 27 | 1007.2 |
| 20260504184542 | 22 | 150 | 3.2 | 11.3 | 0.00 | 0.00 | 0.00 | 28 | 1007.4 |
| 20260504183027 | 21 | 219 | 4.8 | 17.7 | 0.00 | 0.00 | 0.00 | 29 | 1007.5 |
| 20260504181518 | 21 | 160 | 8.0 | 16.1 | 0.00 | 0.00 | 0.00 | 28 | 1007.6 |
| 20260504180024 | 21 | 291 | 3.2 | 19.3 | 0.00 | 0.00 | 0.00 | 30 | 1007.5 |
| 20260504174524 | 21 | 345 | 6.4 | 17.7 | 0.00 | 0.00 | 0.00 | 29 | 1007.6 |
| 20260504173028 | 20 | 160 | 6.4 | 25.7 | 0.00 | 0.00 | 0.00 | 30 | 1007.9 |
| 20260504171525 | 20 | 210 | 4.8 | 22.5 | 0.00 | 0.00 | 0.00 | 29 | 1008.0 |
| 20260504081520 | 6 | 146 | 0.0 | 0.0 | 0.00 | 0.05 | 0.00 | 64 | 1010.7 |
| 20260504050024 | 4 | 124 | 0.0 | 3.2 | 0.00 | 0.05 | 0.00 | 62 | 1010.5 |
| 20260504044506 | 3 | 124 | 0.0 | 3.2 | 0.00 | 0.05 | 0.00 | 65 | 1010.7 |
| 20260504043006 | 3 | 153 | 0.0 | 1.6 | 0.00 | 0.05 | 0.00 | 65 | 1010.4 |
| 20260504041532 | 3 | 153 | 0.0 | 1.6 | 0.00 | 0.05 | 0.00 | 64 | 1010.4 |
| 20260504040025 | 3 | 153 | 0.0 | 1.6 | 0.00 | 0.05 | 0.00 | 65 | 1010.3 |
| 20260504034520 | 4 | 153 | 0.0 | 1.6 | 0.00 | 0.05 | 0.05 | 62 | 1010.1 |
| 20260504033003 | 4 | 153 | 0.0 | 1.6 | 0.00 | 0.05 | 0.05 | 62 | 1010.0 |
| 20260504031507 | 4 | 153 | 0.0 | 1.6 | 0.00 | 0.05 | 0.05 | 62 | 1010.1 |
| 20260504030013 | 5 | 158 | 0.0 | 1.6 | 0.00 | 0.05 | 0.05 | 61 | 1010.2 |